Pagrindinis puslapis
METAR-TAF:

METAR-TAF

Oro uostai :

Jelivarė, Švedija

platuma: 67-09N, ilguma: 020-39E, Aukštis: 359 m

Dabartinis oras

Ataskaita buvo paskelbta 12 minutes, ne 03:20 UTC
Vėjas 7 kt iš Pietų/Pietryčių
Temperatūra -1°C
Drėgmė 86%
Slėgis 981 hPa
Matomumas: 3900 m
lietus, sniegas

METAR: ESNG 210320Z AUTO 16007KT 3900 -RASN VV015 M01/M03 Q0981

Laikas: 04:32 (03:32 UTC)

Prognozė

Ataskaita buvo paskelbta 32 minutes, ne 03:00 UTC
Prognozė galioja nuo 21 metu 04 UTC su 21 metu 12 UTC
Vėjas 9 kt iš Pietų
Matomumas: 7000 m
Su prošvaistėmis ne aukštis 1500 ft
sniegas
Laikinai
nuo 21 metu 04 UTC su 21 metu 09 UTC
Matomumas: 2000 m
ne aukštis 900 ft
sniegas

TAF: ESNG 210300Z 2104/2112 17009KT 7000 -SN BKN015 TEMPO 2104/2109 2000 SN VV009

Orai ataskaitas ir orų prognozės (METAR, TAF).

turimą stotys yra geltonos ir raudonos taškus žemėlapyje.

Perkelti pele per norėdami pamatyti stoties vardą.

Tada spustelėkite, norėdami matyti oro stebėjimo ir prognozės.

Norėdami pakeisti žemėlapį: spustelėkite ant žalios mygtukų su juodo kryžiaus žemyn,; žalią mygtuką su brūkšneliu, jei norite nutolinti; arba žalių rodyklių gretimoms žemėlapius.


METAR-TAF: